LiveATC.Net - Listen to live air traffic control over the Internet!

Airport/ARTCC Code
Frequency Search
(e.g., 124.400, 128.75)
Site-wide search
 


Browse LiveATC Feeds
Top 50 LiveATC Feeds
LiveATC Feed Map
Bad Weather Areas

LiveATC FAQ
Offer LiveATC feed
Contact LiveATC.net
Press Inquiries

LiveATC on iPhone
LiveATC on Android

Windows Phone
Windows 8/10

LiveATC Mobile
(Mobile browser)

ATC Audio Archives
Interesting Recordings

LiveATC Forums

Home Page
About LiveATC.net
Make a Donation
Terms of Use
Privacy Policy

Canadian Air Freqs

AIRMETs/SIGMETs

FAA Airport Status
Nat'l Airspace Status
Arrival Demand Charts


Server Software By:
Icecast.org
Liquidsoap


Current Potentially Bad Weather Airports
(updated every 30 minutes - sorted alphabetically by ICAO code)



This page lists LiveATC.net airport areas that may be interesting to listen to because of challenging flying (weather) conditions. Challenging weather conditions include low ceilings, limited visibility, high or gusty winds, or thunderstorms.

Updated: Thu Aug 22 05:40:01 UTC 2019
Click on airport name to go to that airport area's feeds.

Australia - ATC Satellite Feed Sydney International Airport (Sydney, AU-NSW)
WX MAP UNAVAILABLENearest METAR:
YSSY 220505Z 18028G38KT 9999 FEW040 BKN065 15/05 Q1015
CYEG Approach Edmonton International Airport (Edmonton, CA-AB)
WX MAP UNAVAILABLENearest METAR:
CYEG 220526Z 16003KT 130V300 20SM -TSRA OVC100 18/15 A2964 RMK AC8 CVCTV CLD EMBD SLP036 DENSITY ALT 3600FT
CYRQ CTAF Trois Rivieres Airport (Trois-Rivieres, CA-QC)
WX MAP UNAVAILABLENearest METAR:
CYRQ 220500Z AUTO 18006KT 9SM OVC008 20/19 A2969 RMK LTNG DIST NW SLP056 DENSITY ALT 1000FT
CZUL ACC (Noranda Sector) Timmins Airport (Timmins, CA-QC)
WX MAP UNAVAILABLENearest METAR:
CYTS 220500Z 28004KT 1/2SM R03/3000V4500FT/D BR FG VV001 09/09 A2988 RMK FG8 SLP126
EICK Ground/Tower Cork Airport (Cork, Ireland)
WX MAP UNAVAILABLENearest METAR:
EICK 220500Z 23015KT 4500 -RADZ OVC002 15/15 Q1019 NOSIG
EIKN Gnd/Twr/App Ireland West Airport Knock (Charlestown, Ireland)
WX MAP UNAVAILABLENearest METAR:
EIKN 220500Z 22005KT 160V250 2000 -RADZ BKN003 OVC006 12/12 Q1015 NOSIG
ENGM Approach Oslo Gardermoen Airport (Oslo, Norway)
WX MAP UNAVAILABLENearest METAR:
ENGM 220520Z 00000KT 0750 0350SW R19R/P2000N R01R/0700D FG OVC001 08/08 Q1021 TEMPO 2000 BCFG BKN002
EYVI Twr/App/Misc Vilnius International Airport (Vilnius, Lithuania)
WX MAP UNAVAILABLENearest METAR:
EYVI 220520Z VRB01KT 2700 BR OVC002 12/12 Q1029 NOSIG
KALB Approach/Departure Albany International Airport (Albany, US-NY)
kalbNearest METAR:
KALB 220528Z 17007KT 2SM BCFG BR OVC003 21/19 A2984 RMK AO2 TWR VIS 4 VIS 1V3 BCFG ALQDS T02110194
KAMW CTAF Ames Municipal Airport (Ames, US-IA)
kamwNearest METAR:
KAMW 201007Z AUTO 31012G21KT 3/4SM +TSRA BR SCT012 BKN029 OVC110 22/22 A2996 RMK AO2 LTG DSNT ALQDS PRESRR P0034 T02220217
KAUG Del/CTAF Augusta State Airport (Augusta, US-ME)
kaugNearest METAR:
KAUG 220453Z AUTO 00000KT 1/4SM FG VV002 20/20 A2979 RMK AO2 SLP087 T02000200 402440150 TSNO
KBAF Ground Barnes Municipal Airport (Westfield/Springfield, US-MA)
kbafNearest METAR:
KBAF 220525Z AUTO 00000KT 1/2SM R20/P6000FT FG VV004 19/18 A2985 RMK AO2 T01890183
KBGR Del/Gnd/Twr Bangor International Airport (Bangor, US-ME)
kbgrNearest METAR:
KBGR 220453Z 00000KT 10SM OVC005 20/19 A2978 RMK AO2 SLP082 T02000194 402610144
KBJC Ground/Tower Rocky Mountain Metropolitan Airport (Denver, US-CO)
kbjcNearest METAR:
KBJC 220512Z AUTO 00000KT 10SM CLR 20/08 A3016 RMK AO2 LTG DSNT NE
MA/NH/RI/CT Area CTAF Fitchburg Municipal Airport (Fitchburg, US-MA)
kconNearest METAR:
KCON 220526Z AUTO 00000KT 1 1/4SM BR OVC002 20/19 A2981 RMK AO2 T02000194
KBTV Del/Gnd/Twr/App #2 Burlington International Airport (Burlington, US-VT)
kbtvNearest METAR:
KBTV 220522Z 19009KT 10SM OVC008 22/19 A2979 RMK AO2 T02170194
KCOS Gnd/Twr/App/Dep City of Colorado Springs Municipal Airport (Colorado Springs, US-CO)
kcosNearest METAR:
KCOS 220454Z 27004KT 10SM FEW060 SCT130 BKN220 18/11 A3024 RMK AO2 SLP151 CONS LTGICCCCA DSNT NE AND E CB DSNT NE AND E MOV SE T01830106
KCOU CTAF/Gnd/App Columbia Regional Airport (Columbia, US-MO)
kcouNearest METAR:
KCOU 220525Z AUTO 20012KT 7SM RA SCT011 BKN025 OVC055 23/21 A3005 RMK AO2 LTG DSNT SE-SW RAB04 P0002 T02280211
KFTG/KEIK/KBDU/KLMO/Misc Vance Brand Airport (Longmont, US-CO)
kftgNearest METAR:
KFTG 220512Z AUTO 35009G14KT 10SM CLR 20/11 A3016 RMK AO2 LTG DSNT N T02030113
KFDK Del/Gnd/Twr/CTAF Frederick Municipal Airport (Frederick, US-MD)
kfdkNearest METAR:
KFDK 220530Z AUTO 19004KT 10SM CLR 24/22 A2996 RMK AO2 LTG DSNT E
KFWA App/Dep Fort Wayne International Airport (Fort Wayne, US-IN)
kfwaNearest METAR:
KFWA 220454Z 25006KT 10SM BKN035 BKN100 BKN170 24/22 A2996 RMK AO2 SLP139 OCNL LTGIC DSNT NE CB DSNT NE MOV E T02390217 402830206
KGFL CTAF/App Floyd Bennett Memorial Airport (Glens Falls, US-NY)
kgflNearest METAR:
KGFL 220508Z AUTO 20007KT 8SM OVC003 21/20 A2982 RMK AO2 T02060200
KHNB CTAF Huntingburg Airport (Huntingburg, US-IN)
khnbNearest METAR:
KHNB 201856Z AUTO 24009KT 10SM CLR 32/24 A3004 RMK AO2 LTG DSNT W-NE TSB35E50 SLP167 T03170244
KHUT Ground/Twr Hutchinson Municipal Airport (Hutchinson, US-KS)
khutNearest METAR:
KHUT 220517Z AUTO 02005KT 10SM TS SCT065 22/18 A2999 RMK AO2 LTG DSNT ALQDS TSB11 T02170183
KHYS CTAF Hays Regional Airport (Hays, US-KS)
khysNearest METAR:
KHYS 220456Z AUTO 07009KT 10SM OVC008 21/21 A2983 RMK AO2 SLP084 T02110206 TSNO
KICT Approach 125.5 Wichita Mid-Continent Airport (Wichita, US-KS)
kictNearest METAR:
KICT 220453Z 15004KT 7SM -TSRA SCT055CB BKN100 BKN120 OVC150 23/18 A2997 RMK AO2 LTG DSNT SW-NW SLP131 CONS LTGICCCCG ALQDS TS ALQDS MOV SE P0005 T02330183
KIXD ASOS/ATIS New Century AirCenter Airport (Olathe, US-KS)
kixdNearest METAR:
KIXD 220525Z AUTO 05005KT 10SM TS BKN012 BKN110 23/22 A3001 RMK AO2 LTG DSNT S-W TSB20 T02330217 $
KLAL Approach/Departure Lakeland Linder Regional Airport (Lakeland, US-FL)
klalNearest METAR:
KLAL 220150Z 13005KT 10SM SKC 27/22 A3008 RMK LTG DSNT W
KLBB Gnd/Twr/App Lubbock Preston Smith International Airport (Lubbock, US-TX)
klbbNearest METAR:
KLBB 220453Z 16006KT 10SM FEW075 SCT120 SCT250 28/14 A3004 RMK AO2 SLP108 OCNL LTGICCG DSNT N CB DSNT N MOV E T02830139
KLCI Del/CTAF Laconia Municipal Airport (Laconia, US-NH)
klciNearest METAR:
KLCI 220511Z AUTO 23004KT 9SM OVC002 19/19 A2982 RMK AO2
KMRY Del/Gnd/Twr Monterey Peninsula Airport (Monterey, US-CA)
kmryNearest METAR:
KMRY 220454Z AUTO 28007KT 10SM OVC004 20/17 A2994 RMK AO2 SLP150 T02000172 TSNO
KMWA Gnd/Twr/CTAF Williamson County Regional Airport (Marion, US-IL)
kmwaNearest METAR:
KMWA 220515Z AUTO 00000KT 10SM CLR 24/20 A3001 RMK AO2 LTG DSNT N T02360195
NORCAL Departure (KSFO/KOAK) Metropolitan Oakland International Airport (Oakland, US-CA)
ksfoNearest METAR:
KSFO 220456Z 28022G30KT 10SM FEW002 BKN005 19/18 A2988 RMK AO2 PK WND 28030/0452 SLP120 T01940178
KOFF Gnd/Twr/App/ZMP Offutt Air Force Base (Omaha, US-NE)
koffNearest METAR:
KOFF 220456Z 04003KT 10SM FEW030 FEW080 20/19 A3011 RMK AO2A SLP183 RVRNO $
KOJC Gnd/Twr Johnson County Executive Airport (Olathe, US-KS)
kojcNearest METAR:
KOJC 220526Z AUTO 07006KT 10SM VCTS SCT010 OVC015 23/22 A3000 RMK AO2 LTG DSNT SW AND W T02280217
KLXT/KMKC Area Helicopters Lee's Summit Municipal Airport (Lee's Summit, US-MO)
klxtNearest METAR:
KMKC 220524Z 05008KT 10SM BKN013 BKN026 OVC043 24/21 A3000 RMK AO2 LTG DSNT SW T02390206
KOTH ATIS/AWOS Southwest Oregon Regional Airport (North Bend, US-OR)
kothNearest METAR:
KOTH 220456Z AUTO 27003KT 10SM OVC004 17/17 A3006 RMK AO2 SLP180 T01720172 TSNO
KPWM Gnd/Twr/App Portland International Jetport (Portland, US-ME)
kpwmNearest METAR:
KPWM 220451Z 00000KT 3/4SM BR VV002 21/20 A2978 RMK AO2 SLP085 T02060200 402500150
KSAR CTAF Sparta Community Airport-Hunter Field (Sparta, US-IL)
ksarNearest METAR:
KSAR 220515Z AUTO 28005KT 10SM -DZ CLR 23/22 A3002 RMK AO2 LTG DSNT NE T02260217
KSDM Ground/Tower Brown Field Municipal Airport (San Diego, US-CA)
ksdmNearest METAR:
KSDM 220512Z AUTO 30004KT 4SM BR OVC003 19/18 A2981 RMK AO2 T01890178
KSGF Ground/Tower Springfield-Branson National Airport (Springfield, US-MO)
ksgfNearest METAR:
KSGF 220525Z 07009KT 3SM TSRA BR SCT032 OVC043 22/20 A3007 RMK AO2 LTG DSNT W-NE RAB09 TSB23 P0021 T02170200
KSTL Del/Gnd/Twr Lambert-St Louis International Airport (St. Louis, US-MO)
kstlNearest METAR:
KSTL 220451Z 23008KT 9SM -RA FEW040 BKN110 OVC140 23/21 A3001 RMK AO2 TSE41 SLP150 OCNL LTGIC DSNT NE CB DSNT NE MOV NE P0004 T02280211
KTUL Del/Gnd/Twr/App Tulsa International Airport (Tulsa, US-OK)
ktulNearest METAR:
KTUL 220453Z 14009KT 10SM FEW040 FEW080 SCT250 27/22 A2991 RMK AO2 SLP119 FRQ LTGICCC DSNT NW-N CB DSNT NW-N MOV E T02720217
MMHO App/Dep Hermosillo International Airport (Hermosillo, Mexico)
WX MAP UNAVAILABLENearest METAR:
MMHO 220440Z 17006KT 8SM FEW040 FEW090 SCT200 35/22 A2982 RMK 8/463 CB WITH LTGIC 2 ND QUAD HZY
SBBI Gnd/Twr Bacacheri Airport (Curitiba, Brazil)
WX MAP UNAVAILABLENearest METAR:
SBBI 220100Z 11007KT 4000 BR OVC003 10/09 Q1026
SBCT Gnd/Twr/App Afonso Pena Airport (Curitiba, Brazil)
WX MAP UNAVAILABLENearest METAR:
SBCT 220500Z 15008KT 5000 BR OVC002 08/08 Q1026
URKK Gnd/Twr/App Pashkovskiy General Airport (Krasnodar, Russia)
WX MAP UNAVAILABLENearest METAR:
URKK 220500Z 09002MPS 9999 FEW///CB 24/13 Q1011 R05R/CLRD70 TEMPO -TSRA BKN030CB RMK QFE755
YBBN Gnd/Twr/App/Dep Brisbane International Airport (Brisbane, AU-QLD)
WX MAP UNAVAILABLENearest METAR:
YBBN 220516Z 25022G35KT CAVOK 25/M01 Q1009